sensor_id;sensor_type;location;lat;lon;timestamp;temperature;humidity
48912;DHT22;34722;52.108;5.044;2023-07-13T00:02:28;17.10;99.90
48912;DHT22;34722;52.108;5.044;2023-07-13T00:04:55;17.10;99.90
48912;DHT22;34722;52.108;5.044;2023-07-13T00:07:22;17.00;99.90
48912;DHT22;34722;52.108;5.044;2023-07-13T00:09:51;16.90;99.90
48912;DHT22;34722;52.108;5.044;2023-07-13T02:16:17;15.70;99.90
48912;DHT22;34722;52.108;5.044;2023-07-13T02:19:19;15.70;99.90
48912;DHT22;34722;52.108;5.044;2023-07-13T02:25:20;15.70;99.90
48912;DHT22;34722;52.108;5.044;2023-07-13T03:30:52;15.20;99.90
48912;DHT22;34722;52.108;5.044;2023-07-13T03:33:58;15.20;99.90
48912;DHT22;34722;52.108;5.044;2023-07-13T03:36:43;15.20;99.90
48912;DHT22;34722;52.108;5.044;2023-07-13T03:39:14;15.20;99.90
48912;DHT22;34722;52.108;5.044;2023-07-13T03:45:49;15.20;99.90
48912;DHT22;34722;52.108;5.044;2023-07-13T03:52:38;15.20;99.90
48912;DHT22;34722;52.108;5.044;2023-07-13T03:55:12;15.30;99.90
48912;DHT22;34722;52.108;5.044;2023-07-13T03:57:53;15.30;99.90
48912;DHT22;34722;52.108;5.044;2023-07-13T04:00:44;15.30;99.90
48912;DHT22;34722;52.108;5.044;2023-07-13T04:06:44;15.30;99.90
48912;DHT22;34722;52.108;5.044;2023-07-13T04:12:41;15.30;99.90
48912;DHT22;34722;52.108;5.044;2023-07-13T04:15:38;15.40;99.90
48912;DHT22;34722;52.108;5.044;2023-07-13T04:18:34;15.30;99.90
48912;DHT22;34722;52.108;5.044;2023-07-13T04:28:52;15.40;99.90
48912;DHT22;34722;52.108;5.044;2023-07-13T04:31:54;15.50;99.90
48912;DHT22;34722;52.108;5.044;2023-07-13T04:34:36;15.70;99.90
48912;DHT22;34722;52.108;5.044;2023-07-13T04:37:16;15.80;99.90
48912;DHT22;34722;52.108;5.044;2023-07-13T04:43:43;15.70;99.90
48912;DHT22;34722;52.108;5.044;2023-07-13T04:50:28;15.90;99.90
48912;DHT22;34722;52.108;5.044;2023-07-13T04:52:55;15.90;99.90
48912;DHT22;34722;52.108;5.044;2023-07-13T05:50:49;18.00;99.90
48912;DHT22;34722;52.108;5.044;2023-07-13T05:58:23;20.00;99.90
48912;DHT22;34722;52.108;5.044;2023-07-13T06:04:43;20.10;99.90
48912;DHT22;34722;52.108;5.044;2023-07-13T06:11:26;21.70;99.90
48912;DHT22;34722;52.108;5.044;2023-07-13T07:28:36;18.10;99.90
48912;DHT22;34722;52.108;5.044;2023-07-13T07:31:21;19.10;99.90
48912;DHT22;34722;52.108;5.044;2023-07-13T07:33:48;19.90;99.90
48912;DHT22;34722;52.108;5.044;2023-07-13T07:36:18;20.70;99.90
48912;DHT22;34722;52.108;5.044;2023-07-13T07:38:48;22.00;99.90
48912;DHT22;34722;52.108;5.044;2023-07-13T07:41:18;23.20;99.90
48912;DHT22;34722;52.108;5.044;2023-07-13T07:43:48;24.00;99.90
48912;DHT22;34722;52.108;5.044;2023-07-13T07:46:17;24.70;99.90
48912;DHT22;34722;52.108;5.044;2023-07-13T07:48:53;25.10;99.90
48912;DHT22;34722;52.108;5.044;2023-07-13T07:51:45;26.80;99.90
48912;DHT22;34722;52.108;5.044;2023-07-13T07:54:39;27.10;99.90
48912;DHT22;34722;52.108;5.044;2023-07-13T08:00:15;28.20;1.00
48912;DHT22;34722;52.108;5.044;2023-07-13T08:03:00;27.30;99.90
48912;DHT22;34722;52.108;5.044;2023-07-13T08:05:36;25.40;99.90
48912;DHT22;34722;52.108;5.044;2023-07-13T09:18:46;22.40;99.90
48912;DHT22;34722;52.108;5.044;2023-07-13T09:21:17;21.50;99.90
48912;DHT22;34722;52.108;5.044;2023-07-13T09:26:21;19.60;99.90
48912;DHT22;34722;52.108;5.044;2023-07-13T09:28:54;19.00;99.90
48912;DHT22;34722;52.108;5.044;2023-07-13T09:31:39;18.30;99.90
48912;DHT22;34722;52.108;5.044;2023-07-13T09:34:10;18.00;99.90
48912;DHT22;34722;52.108;5.044;2023-07-13T09:36:38;18.00;99.90
48912;DHT22;34722;52.108;5.044;2023-07-13T09:39:37;18.30;99.90
48912;DHT22;34722;52.108;5.044;2023-07-13T09:44:39;22.10;99.90
48912;DHT22;34722;52.108;5.044;2023-07-13T09:47:17;24.20;99.90
48912;DHT22;34722;52.108;5.044;2023-07-13T09:52:39;24.90;1.00
48912;DHT22;34722;52.108;5.044;2023-07-13T09:57:56;23.00;99.90
48912;DHT22;34722;52.108;5.044;2023-07-13T10:00:28;24.10;99.90
48912;DHT22;34722;52.108;5.044;2023-07-13T10:03:21;24.20;97.00
48912;DHT22;34722;52.108;5.044;2023-07-13T10:05:50;23.00;75.90
48912;DHT22;34722;52.108;5.044;2023-07-13T10:08:28;21.90;99.90
48912;DHT22;34722;52.108;5.044;2023-07-13T10:11:18;20.90;99.90
48912;DHT22;34722;52.108;5.044;2023-07-13T10:13:58;20.70;99.90
48912;DHT22;34722;52.108;5.044;2023-07-13T10:16:38;20.70;99.90
48912;DHT22;34722;52.108;5.044;2023-07-13T10:21:58;22.70;99.90
48912;DHT22;34722;52.108;5.044;2023-07-13T10:24:33;24.10;99.90
48912;DHT22;34722;52.108;5.044;2023-07-13T10:27:32;24.20;52.80
48912;DHT22;34722;52.108;5.044;2023-07-13T10:30:27;25.50;1.00
48912;DHT22;34722;52.108;5.044;2023-07-13T10:33:00;25.50;99.90
48912;DHT22;34722;52.108;5.044;2023-07-13T10:35:29;25.20;1.00
48912;DHT22;34722;52.108;5.044;2023-07-13T10:38:01;24.80;1.00
48912;DHT22;34722;52.108;5.044;2023-07-13T10:41:09;24.40;1.00
48912;DHT22;34722;52.108;5.044;2023-07-13T10:43:39;23.70;99.90
48912;DHT22;34722;52.108;5.044;2023-07-13T10:46:12;25.10;99.90
48912;DHT22;34722;52.108;5.044;2023-07-13T10:48:40;26.20;99.90
48912;DHT22;34722;52.108;5.044;2023-07-13T10:51:18;27.40;99.90
48912;DHT22;34722;52.108;5.044;2023-07-13T10:54:14;28.10;1.00
48912;DHT22;34722;52.108;5.044;2023-07-13T10:56:48;28.30;99.90
48912;DHT22;34722;52.108;5.044;2023-07-13T10:59:25;28.50;99.90
48912;DHT22;34722;52.108;5.044;2023-07-13T11:02:09;26.80;99.90
48912;DHT22;34722;52.108;5.044;2023-07-13T11:04:47;25.40;99.90
48912;DHT22;34722;52.108;5.044;2023-07-13T11:07:22;23.50;99.90
48912;DHT22;34722;52.108;5.044;2023-07-13T11:09:56;23.00;1.00
48912;DHT22;34722;52.108;5.044;2023-07-13T11:25:34;28.00;99.90
48912;DHT22;34722;52.108;5.044;2023-07-13T11:36:30;23.30;1.00
48912;DHT22;34722;52.108;5.044;2023-07-13T11:39:33;23.20;1.00
48912;DHT22;34722;52.108;5.044;2023-07-13T11:42:03;22.80;99.90
48912;DHT22;34722;52.108;5.044;2023-07-13T11:44:32;22.50;1.00
48912;DHT22;34722;52.108;5.044;2023-07-13T11:47:08;22.00;8.60
48912;DHT22;34722;52.108;5.044;2023-07-13T11:49:45;21.50;99.90
48912;DHT22;34722;52.108;5.044;2023-07-13T11:55:15;22.80;99.90
48912;DHT22;34722;52.108;5.044;2023-07-13T11:57:58;24.10;1.00
48912;DHT22;34722;52.108;5.044;2023-07-13T12:00:31;23.70;99.90
48912;DHT22;34722;52.108;5.044;2023-07-13T12:03:03;24.30;1.00
48912;DHT22;34722;52.108;5.044;2023-07-13T12:05:38;24.50;1.00
48912;DHT22;34722;52.108;5.044;2023-07-13T12:08:22;26.50;99.90
48912;DHT22;34722;52.108;5.044;2023-07-13T12:10:48;26.40;99.90
48912;DHT22;34722;52.108;5.044;2023-07-13T12:13:22;25.80;99.90
48912;DHT22;34722;52.108;5.044;2023-07-13T12:15:57;24.50;99.90
48912;DHT22;34722;52.108;5.044;2023-07-13T12:18:43;25.10;1.00
48912;DHT22;34722;52.108;5.044;2023-07-13T12:21:38;27.00;99.90
48912;DHT22;34722;52.108;5.044;2023-07-13T12:24:23;27.50;15.20
48912;DHT22;34722;52.108;5.044;2023-07-13T12:27:13;26.90;1.00
48912;DHT22;34722;52.108;5.044;2023-07-13T12:29:52;27.10;1.00
48912;DHT22;34722;52.108;5.044;2023-07-13T12:32:27;27.80;1.00
48912;DHT22;34722;52.108;5.044;2023-07-13T12:34:55;27.20;1.00
48912;DHT22;34722;52.108;5.044;2023-07-13T12:37:22;26.10;1.00
48912;DHT22;34722;52.108;5.044;2023-07-13T12:39:49;25.20;1.00
48912;DHT22;34722;52.108;5.044;2023-07-13T12:42:28;25.40;1.00
48912;DHT22;34722;52.108;5.044;2023-07-13T12:45:20;26.10;10.50
48912;DHT22;34722;52.108;5.044;2023-07-13T12:47:56;25.80;1.00
48912;DHT22;34722;52.108;5.044;2023-07-13T12:50:36;25.10;1.00
48912;DHT22;34722;52.108;5.044;2023-07-13T12:53:04;24.60;1.00
48912;DHT22;34722;52.108;5.044;2023-07-13T12:55:45;24.00;1.00
48912;DHT22;34722;52.108;5.044;2023-07-13T12:58:40;23.90;99.90
48912;DHT22;34722;52.108;5.044;2023-07-13T13:01:28;23.80;99.90
48912;DHT22;34722;52.108;5.044;2023-07-13T13:04:00;23.70;94.90
48912;DHT22;34722;52.108;5.044;2023-07-13T13:06:29;23.80;75.50
48912;DHT22;34722;52.108;5.044;2023-07-13T13:08:57;23.70;99.90
48912;DHT22;34722;52.108;5.044;2023-07-13T13:11:24;23.80;99.90
48912;DHT22;34722;52.108;5.044;2023-07-13T13:13:53;23.80;66.60
48912;DHT22;34722;52.108;5.044;2023-07-13T13:16:31;23.70;74.30
48912;DHT22;34722;52.108;5.044;2023-07-13T13:19:00;23.60;53.40
48912;DHT22;34722;52.108;5.044;2023-07-13T13:21:27;23.30;52.50
48912;DHT22;34722;52.108;5.044;2023-07-13T13:23:53;23.50;99.90
48912;DHT22;34722;52.108;5.044;2023-07-13T13:26:21;23.60;99.90
48912;DHT22;34722;52.108;5.044;2023-07-13T13:28:47;23.80;99.90
48912;DHT22;34722;52.108;5.044;2023-07-13T13:31:14;24.00;99.90
48912;DHT22;34722;52.108;5.044;2023-07-13T13:33:45;24.20;99.90
48912;DHT22;34722;52.108;5.044;2023-07-13T13:36:19;23.90;99.90
48912;DHT22;34722;52.108;5.044;2023-07-13T13:38:46;23.80;99.90
48912;DHT22;34722;52.108;5.044;2023-07-13T13:41:14;23.40;99.90
48912;DHT22;34722;52.108;5.044;2023-07-13T13:43:42;23.60;99.90
48912;DHT22;34722;52.108;5.044;2023-07-13T13:46:26;23.30;99.90
48912;DHT22;34722;52.108;5.044;2023-07-13T13:48:54;23.50;99.90
48912;DHT22;34722;52.108;5.044;2023-07-13T13:51:23;23.60;99.90
48912;DHT22;34722;52.108;5.044;2023-07-13T13:53:50;23.50;99.90
48912;DHT22;34722;52.108;5.044;2023-07-13T13:56:19;23.80;99.90
48912;DHT22;34722;52.108;5.044;2023-07-13T13:58:48;23.60;99.90
48912;DHT22;34722;52.108;5.044;2023-07-13T14:01:21;23.30;99.90
48912;DHT22;34722;52.108;5.044;2023-07-13T14:03:51;23.20;99.90
48912;DHT22;34722;52.108;5.044;2023-07-13T14:06:17;23.30;99.90
48912;DHT22;34722;52.108;5.044;2023-07-13T14:08:43;23.20;99.90
48912;DHT22;34722;52.108;5.044;2023-07-13T14:11:14;23.20;99.90
48912;DHT22;34722;52.108;5.044;2023-07-13T14:13:48;23.70;99.90
48912;DHT22;34722;52.108;5.044;2023-07-13T14:16:28;23.90;99.90
48912;DHT22;34722;52.108;5.044;2023-07-13T14:19:05;24.10;99.90
48912;DHT22;34722;52.108;5.044;2023-07-13T14:21:30;24.20;99.90
48912;DHT22;34722;52.108;5.044;2023-07-13T14:23:56;24.50;99.90
48912;DHT22;34722;52.108;5.044;2023-07-13T14:26:24;24.60;99.90
48912;DHT22;34722;52.108;5.044;2023-07-13T14:28:58;24.50;26.00
48912;DHT22;34722;52.108;5.044;2023-07-13T14:31:29;24.40;58.50
48912;DHT22;34722;52.108;5.044;2023-07-13T14:33:56;23.90;61.10
48912;DHT22;34722;52.108;5.044;2023-07-13T14:36:40;23.90;99.90
48912;DHT22;34722;52.108;5.044;2023-07-13T14:39:25;23.80;99.90
48912;DHT22;34722;52.108;5.044;2023-07-13T14:41:53;24.10;99.90
48912;DHT22;34722;52.108;5.044;2023-07-13T14:44:25;24.20;99.90
48912;DHT22;34722;52.108;5.044;2023-07-13T14:46:52;24.40;99.90
48912;DHT22;34722;52.108;5.044;2023-07-13T14:49:33;24.60;99.90
48912;DHT22;34722;52.108;5.044;2023-07-13T14:52:18;24.40;13.70
48912;DHT22;34722;52.108;5.044;2023-07-13T14:54:46;24.20;1.00
48912;DHT22;34722;52.108;5.044;2023-07-13T14:57:17;24.20;1.00
48912;DHT22;34722;52.108;5.044;2023-07-13T14:59:47;24.30;1.00
48912;DHT22;34722;52.108;5.044;2023-07-13T15:02:33;24.40;1.00
48912;DHT22;34722;52.108;5.044;2023-07-13T15:04:59;24.50;1.00
48912;DHT22;34722;52.108;5.044;2023-07-13T15:07:25;24.50;1.00
48912;DHT22;34722;52.108;5.044;2023-07-13T15:09:51;24.40;1.00
48912;DHT22;34722;52.108;5.044;2023-07-13T15:12:17;24.10;1.00
48912;DHT22;34722;52.108;5.044;2023-07-13T15:14:43;23.40;1.00
48912;DHT22;34722;52.108;5.044;2023-07-13T15:17:38;22.90;1.00
48912;DHT22;34722;52.108;5.044;2023-07-13T15:20:26;22.90;99.90
48912;DHT22;34722;52.108;5.044;2023-07-13T15:22:55;22.80;99.90
48912;DHT22;34722;52.108;5.044;2023-07-13T15:25:30;23.00;99.90
48912;DHT22;34722;52.108;5.044;2023-07-13T15:27:57;23.30;99.90
48912;DHT22;34722;52.108;5.044;2023-07-13T15:30:29;23.40;99.90
48912;DHT22;34722;52.108;5.044;2023-07-13T15:32:58;23.40;99.90
48912;DHT22;34722;52.108;5.044;2023-07-13T15:35:28;23.40;99.90
48912;DHT22;34722;52.108;5.044;2023-07-13T15:37:57;23.30;99.90
48912;DHT22;34722;52.108;5.044;2023-07-13T15:40:23;23.10;77.50
48912;DHT22;34722;52.108;5.044;2023-07-13T15:42:50;23.00;99.90
48912;DHT22;34722;52.108;5.044;2023-07-13T15:45:20;23.00;99.90
48912;DHT22;34722;52.108;5.044;2023-07-13T15:47:47;23.00;99.90
48912;DHT22;34722;52.108;5.044;2023-07-13T15:50:15;23.10;99.90
48912;DHT22;34722;52.108;5.044;2023-07-13T15:52:47;23.10;99.90
48912;DHT22;34722;52.108;5.044;2023-07-13T15:55:16;22.90;99.90
48912;DHT22;34722;52.108;5.044;2023-07-13T15:57:53;23.00;99.90
48912;DHT22;34722;52.108;5.044;2023-07-13T16:00:26;22.70;99.90
48912;DHT22;34722;52.108;5.044;2023-07-13T16:02:53;22.60;99.90
48912;DHT22;34722;52.108;5.044;2023-07-13T16:05:21;22.60;99.90
48912;DHT22;34722;52.108;5.044;2023-07-13T16:07:49;22.40;99.90
48912;DHT22;34722;52.108;5.044;2023-07-13T16:10:22;22.40;99.90
48912;DHT22;34722;52.108;5.044;2023-07-13T16:12:51;22.50;99.90
48912;DHT22;34722;52.108;5.044;2023-07-13T16:15:19;22.90;99.90
48912;DHT22;34722;52.108;5.044;2023-07-13T16:17:47;23.10;99.90
48912;DHT22;34722;52.108;5.044;2023-07-13T16:20:14;23.10;99.90
48912;DHT22;34722;52.108;5.044;2023-07-13T16:22:43;23.20;99.90
48912;DHT22;34722;52.108;5.044;2023-07-13T16:25:21;23.10;99.90
48912;DHT22;34722;52.108;5.044;2023-07-13T16:27:50;22.80;99.90
48912;DHT22;34722;52.108;5.044;2023-07-13T16:30:24;22.80;99.90
48912;DHT22;34722;52.108;5.044;2023-07-13T16:32:52;22.80;99.90
48912;DHT22;34722;52.108;5.044;2023-07-13T16:35:26;22.80;99.90
48912;DHT22;34722;52.108;5.044;2023-07-13T16:37:52;22.60;99.90
48912;DHT22;34722;52.108;5.044;2023-07-13T16:40:24;22.70;99.90
48912;DHT22;34722;52.108;5.044;2023-07-13T16:42:51;22.70;99.90
48912;DHT22;34722;52.108;5.044;2023-07-13T16:45:25;22.70;99.90
48912;DHT22;34722;52.108;5.044;2023-07-13T16:47:52;22.60;99.90
48912;DHT22;34722;52.108;5.044;2023-07-13T16:50:25;22.50;99.90
48912;DHT22;34722;52.108;5.044;2023-07-13T16:52:52;22.30;1.00
48912;DHT22;34722;52.108;5.044;2023-07-13T16:55:21;22.20;1.00
48912;DHT22;34722;52.108;5.044;2023-07-13T16:57:54;22.30;1.00
48912;DHT22;34722;52.108;5.044;2023-07-13T17:00:26;22.30;1.00
48912;DHT22;34722;52.108;5.044;2023-07-13T17:02:57;22.20;1.00
48912;DHT22;34722;52.108;5.044;2023-07-13T17:05:35;22.20;1.00
48912;DHT22;34722;52.108;5.044;2023-07-13T17:08:03;22.00;1.00
48912;DHT22;34722;52.108;5.044;2023-07-13T17:10:35;21.90;1.00
48912;DHT22;34722;52.108;5.044;2023-07-13T17:13:02;21.80;1.00
48912;DHT22;34722;52.108;5.044;2023-07-13T17:15:29;21.90;18.10
48912;DHT22;34722;52.108;5.044;2023-07-13T17:17:58;22.00;37.60
48912;DHT22;34722;52.108;5.044;2023-07-13T17:20:31;22.10;92.00
48912;DHT22;34722;52.108;5.044;2023-07-13T17:23:03;22.10;17.30
48912;DHT22;34722;52.108;5.044;2023-07-13T17:25:28;21.90;1.00
48912;DHT22;34722;52.108;5.044;2023-07-13T17:27:56;21.80;17.70
48912;DHT22;34722;52.108;5.044;2023-07-13T17:30:22;21.80;99.90
48912;DHT22;34722;52.108;5.044;2023-07-13T17:32:50;21.80;99.90
48912;DHT22;34722;52.108;5.044;2023-07-13T17:35:32;21.80;99.90
48912;DHT22;34722;52.108;5.044;2023-07-13T17:38:01;21.80;99.90
48912;DHT22;34722;52.108;5.044;2023-07-13T17:40:27;21.90;99.90
48912;DHT22;34722;52.108;5.044;2023-07-13T17:42:54;21.90;99.90
48912;DHT22;34722;52.108;5.044;2023-07-13T17:45:28;21.90;99.90
48912;DHT22;34722;52.108;5.044;2023-07-13T17:47:55;21.80;99.90
48912;DHT22;34722;52.108;5.044;2023-07-13T17:50:35;21.70;1.00
48912;DHT22;34722;52.108;5.044;2023-07-13T17:53:16;21.50;99.90
48912;DHT22;34722;52.108;5.044;2023-07-13T17:55:42;21.50;1.00
48912;DHT22;34722;52.108;5.044;2023-07-13T17:58:10;21.40;1.00
48912;DHT22;34722;52.108;5.044;2023-07-13T18:00:39;21.30;1.00
48912;DHT22;34722;52.108;5.044;2023-07-13T18:03:24;21.20;1.00
48912;DHT22;34722;52.108;5.044;2023-07-13T18:05:53;21.00;1.00
48912;DHT22;34722;52.108;5.044;2023-07-13T18:08:27;20.90;1.00
48912;DHT22;34722;52.108;5.044;2023-07-13T18:10:56;20.80;1.00
48912;DHT22;34722;52.108;5.044;2023-07-13T18:13:23;20.80;5.80
48912;DHT22;34722;52.108;5.044;2023-07-13T18:15:49;20.70;99.90
48912;DHT22;34722;52.108;5.044;2023-07-13T18:18:20;20.60;99.90
48912;DHT22;34722;52.108;5.044;2023-07-13T18:20:46;20.50;1.00
48912;DHT22;34722;52.108;5.044;2023-07-13T18:23:21;20.50;1.00
48912;DHT22;34722;52.108;5.044;2023-07-13T18:25:48;20.30;17.80
48912;DHT22;34722;52.108;5.044;2023-07-13T18:28:16;20.30;99.90
48912;DHT22;34722;52.108;5.044;2023-07-13T18:30:52;20.20;99.90
48912;DHT22;34722;52.108;5.044;2023-07-13T18:33:30;20.20;99.90
48912;DHT22;34722;52.108;5.044;2023-07-13T18:36:01;20.10;1.00
48912;DHT22;34722;52.108;5.044;2023-07-13T18:38:28;20.00;1.00
48912;DHT22;34722;52.108;5.044;2023-07-13T18:40:55;19.90;1.00
48912;DHT22;34722;52.108;5.044;2023-07-13T18:43:22;19.90;99.90
48912;DHT22;34722;52.108;5.044;2023-07-13T18:46:00;19.90;99.90
48912;DHT22;34722;52.108;5.044;2023-07-13T18:48:31;19.80;99.90
48912;DHT22;34722;52.108;5.044;2023-07-13T18:50:57;19.80;99.90
48912;DHT22;34722;52.108;5.044;2023-07-13T18:53:24;19.80;99.90
48912;DHT22;34722;52.108;5.044;2023-07-13T18:55:52;19.80;99.90
48912;DHT22;34722;52.108;5.044;2023-07-13T18:58:18;19.70;99.90
48912;DHT22;34722;52.108;5.044;2023-07-13T19:00:49;19.60;99.90
48912;DHT22;34722;52.108;5.044;2023-07-13T19:03:17;19.60;99.90
48912;DHT22;34722;52.108;5.044;2023-07-13T19:05:44;19.50;99.90
48912;DHT22;34722;52.108;5.044;2023-07-13T19:08:18;19.40;1.00
48912;DHT22;34722;52.108;5.044;2023-07-13T19:10:45;19.30;1.00
48912;DHT22;34722;52.108;5.044;2023-07-13T19:13:18;19.20;1.00
48912;DHT22;34722;52.108;5.044;2023-07-13T19:15:44;19.20;99.90
48912;DHT22;34722;52.108;5.044;2023-07-13T19:18:13;19.10;1.00
48912;DHT22;34722;52.108;5.044;2023-07-13T19:20:40;19.00;99.90
48912;DHT22;34722;52.108;5.044;2023-07-13T19:26:21;18.90;99.90
48912;DHT22;34722;52.108;5.044;2023-07-13T19:28:51;18.90;99.90
48912;DHT22;34722;52.108;5.044;2023-07-13T19:31:18;18.90;99.90
48912;DHT22;34722;52.108;5.044;2023-07-13T19:33:45;18.80;99.90
48912;DHT22;34722;52.108;5.044;2023-07-13T19:36:13;18.70;99.90
48912;DHT22;34722;52.108;5.044;2023-07-13T19:38:49;18.60;1.00
48912;DHT22;34722;52.108;5.044;2023-07-13T19:41:20;18.50;1.00
48912;DHT22;34722;52.108;5.044;2023-07-13T19:43:49;18.50;1.00
48912;DHT22;34722;52.108;5.044;2023-07-13T19:46:32;18.40;1.00
48912;DHT22;34722;52.108;5.044;2023-07-13T19:48:59;18.40;31.40
48912;DHT22;34722;52.108;5.044;2023-07-13T19:51:28;18.30;98.70
48912;DHT22;34722;52.108;5.044;2023-07-13T19:54:12;18.20;99.90
48912;DHT22;34722;52.108;5.044;2023-07-13T19:56:39;18.10;99.90
48912;DHT22;34722;52.108;5.044;2023-07-13T19:59:35;18.00;99.90
48912;DHT22;34722;52.108;5.044;2023-07-13T20:02:02;17.90;99.90
48912;DHT22;34722;52.108;5.044;2023-07-13T20:04:29;17.90;99.90
48912;DHT22;34722;52.108;5.044;2023-07-13T20:06:56;17.90;99.90
48912;DHT22;34722;52.108;5.044;2023-07-13T20:09:24;17.80;99.90
48912;DHT22;34722;52.108;5.044;2023-07-13T20:11:50;17.80;99.90
48912;DHT22;34722;52.108;5.044;2023-07-13T20:14:22;17.80;99.90
48912;DHT22;34722;52.108;5.044;2023-07-13T20:16:49;17.70;99.90
48912;DHT22;34722;52.108;5.044;2023-07-13T20:19:16;17.60;99.90
48912;DHT22;34722;52.108;5.044;2023-07-13T20:21:53;17.60;99.90
48912;DHT22;34722;52.108;5.044;2023-07-13T20:24:19;17.60;99.90
48912;DHT22;34722;52.108;5.044;2023-07-13T20:26:46;17.50;99.90
48912;DHT22;34722;52.108;5.044;2023-07-13T20:29:16;17.50;99.90
48912;DHT22;34722;52.108;5.044;2023-07-13T20:31:44;17.40;99.90
48912;DHT22;34722;52.108;5.044;2023-07-13T20:34:22;17.40;99.90
48912;DHT22;34722;52.108;5.044;2023-07-13T20:36:52;17.40;99.90
48912;DHT22;34722;52.108;5.044;2023-07-13T20:39:20;17.30;99.90
48912;DHT22;34722;52.108;5.044;2023-07-13T20:41:46;17.30;99.90
48912;DHT22;34722;52.108;5.044;2023-07-13T20:44:12;17.30;99.90
48912;DHT22;34722;52.108;5.044;2023-07-13T20:46:38;17.20;99.90
48912;DHT22;34722;52.108;5.044;2023-07-13T20:49:15;17.20;99.90
48912;DHT22;34722;52.108;5.044;2023-07-13T20:51:43;17.10;99.90
48912;DHT22;34722;52.108;5.044;2023-07-13T20:54:14;17.10;99.90
48912;DHT22;34722;52.108;5.044;2023-07-13T20:56:40;17.10;99.90
48912;DHT22;34722;52.108;5.044;2023-07-13T20:59:06;17.10;99.90
48912;DHT22;34722;52.108;5.044;2023-07-13T21:01:34;17.00;99.90
48912;DHT22;34722;52.108;5.044;2023-07-13T21:04:02;17.00;99.90
48912;DHT22;34722;52.108;5.044;2023-07-13T21:06:29;17.00;99.90
48912;DHT22;34722;52.108;5.044;2023-07-13T21:08:58;16.90;99.90
48912;DHT22;34722;52.108;5.044;2023-07-13T21:11:24;16.90;99.90
48912;DHT22;34722;52.108;5.044;2023-07-13T21:13:51;16.80;99.90
48912;DHT22;34722;52.108;5.044;2023-07-13T21:16:21;16.80;99.90
48912;DHT22;34722;52.108;5.044;2023-07-13T21:18:49;16.70;99.90
48912;DHT22;34722;52.108;5.044;2023-07-13T21:21:18;16.60;99.90
48912;DHT22;34722;52.108;5.044;2023-07-13T21:23:44;16.70;99.90
48912;DHT22;34722;52.108;5.044;2023-07-13T21:26:10;16.50;99.90
48912;DHT22;34722;52.108;5.044;2023-07-13T21:28:38;16.50;99.90
48912;DHT22;34722;52.108;5.044;2023-07-13T21:33:43;16.50;99.90
48912;DHT22;34722;52.108;5.044;2023-07-13T21:36:09;16.60;99.90
48912;DHT22;34722;52.108;5.044;2023-07-13T21:38:38;16.50;99.90
48912;DHT22;34722;52.108;5.044;2023-07-13T21:41:27;16.50;99.90
48912;DHT22;34722;52.108;5.044;2023-07-13T21:43:53;16.50;99.90
48912;DHT22;34722;52.108;5.044;2023-07-13T21:46:23;16.40;99.90
48912;DHT22;34722;52.108;5.044;2023-07-13T21:48:50;16.40;99.90
48912;DHT22;34722;52.108;5.044;2023-07-13T21:51:26;16.40;99.90
48912;DHT22;34722;52.108;5.044;2023-07-13T21:53:54;16.30;99.90
48912;DHT22;34722;52.108;5.044;2023-07-13T21:56:21;16.20;99.90
48912;DHT22;34722;52.108;5.044;2023-07-13T21:58:48;16.10;99.90
48912;DHT22;34722;52.108;5.044;2023-07-13T22:01:19;16.10;99.90
48912;DHT22;34722;52.108;5.044;2023-07-13T22:03:47;16.00;99.90
48912;DHT22;34722;52.108;5.044;2023-07-13T22:06:23;16.00;99.90
48912;DHT22;34722;52.108;5.044;2023-07-13T22:08:52;15.90;99.90
48912;DHT22;34722;52.108;5.044;2023-07-13T22:11:20;15.90;99.90
48912;DHT22;34722;52.108;5.044;2023-07-13T22:13:47;15.90;99.90
48912;DHT22;34722;52.108;5.044;2023-07-13T22:16:25;15.80;99.90
48912;DHT22;34722;52.108;5.044;2023-07-13T22:18:54;15.80;99.90
48912;DHT22;34722;52.108;5.044;2023-07-13T22:21:21;15.70;99.90
48912;DHT22;34722;52.108;5.044;2023-07-13T22:23:48;15.70;99.90
48912;DHT22;34722;52.108;5.044;2023-07-13T22:26:22;15.60;99.90
48912;DHT22;34722;52.108;5.044;2023-07-13T22:28:52;15.60;99.90
48912;DHT22;34722;52.108;5.044;2023-07-13T22:31:24;15.70;99.90
48912;DHT22;34722;52.108;5.044;2023-07-13T22:33:54;15.80;99.90
48912;DHT22;34722;52.108;5.044;2023-07-13T22:36:19;15.80;99.90
48912;DHT22;34722;52.108;5.044;2023-07-13T22:38:46;15.80;99.90
48912;DHT22;34722;52.108;5.044;2023-07-13T22:41:15;15.80;99.90
48912;DHT22;34722;52.108;5.044;2023-07-13T22:43:44;15.90;99.90
48912;DHT22;34722;52.108;5.044;2023-07-13T22:46:24;15.90;99.90
48912;DHT22;34722;52.108;5.044;2023-07-13T22:49:12;15.90;99.90
48912;DHT22;34722;52.108;5.044;2023-07-13T22:51:41;15.80;99.90
48912;DHT22;34722;52.108;5.044;2023-07-13T22:54:11;15.90;99.90
48912;DHT22;34722;52.108;5.044;2023-07-13T22:56:38;15.90;99.90
48912;DHT22;34722;52.108;5.044;2023-07-13T22:59:04;15.90;99.90
48912;DHT22;34722;52.108;5.044;2023-07-13T23:01:33;15.90;99.90
48912;DHT22;34722;52.108;5.044;2023-07-13T23:04:24;15.90;99.90
48912;DHT22;34722;52.108;5.044;2023-07-13T23:06:56;15.80;99.90
48912;DHT22;34722;52.108;5.044;2023-07-13T23:09:24;15.80;99.90
48912;DHT22;34722;52.108;5.044;2023-07-13T23:11:52;15.80;99.90
48912;DHT22;34722;52.108;5.044;2023-07-13T23:14:18;15.90;99.90
48912;DHT22;34722;52.108;5.044;2023-07-13T23:16:44;15.90;99.90
48912;DHT22;34722;52.108;5.044;2023-07-13T23:19:31;15.90;99.90
48912;DHT22;34722;52.108;5.044;2023-07-13T23:21:58;15.90;99.90
48912;DHT22;34722;52.108;5.044;2023-07-13T23:24:25;15.90;99.90
48912;DHT22;34722;52.108;5.044;2023-07-13T23:26:53;15.90;99.90
48912;DHT22;34722;52.108;5.044;2023-07-13T23:29:20;15.80;99.90
48912;DHT22;34722;52.108;5.044;2023-07-13T23:31:46;15.80;99.90
48912;DHT22;34722;52.108;5.044;2023-07-13T23:34:14;15.80;99.90
48912;DHT22;34722;52.108;5.044;2023-07-13T23:36:41;15.80;99.90
48912;DHT22;34722;52.108;5.044;2023-07-13T23:39:17;15.80;99.90
48912;DHT22;34722;52.108;5.044;2023-07-13T23:41:45;15.70;99.90
48912;DHT22;34722;52.108;5.044;2023-07-13T23:44:14;15.70;99.90
48912;DHT22;34722;52.108;5.044;2023-07-13T23:46:54;15.60;99.90
48912;DHT22;34722;52.108;5.044;2023-07-13T23:49:31;15.60;99.90
48912;DHT22;34722;52.108;5.044;2023-07-13T23:52:09;15.60;99.90
48912;DHT22;34722;52.108;5.044;2023-07-13T23:54:36;15.60;99.90
48912;DHT22;34722;52.108;5.044;2023-07-13T23:57:03;15.60;99.90
48912;DHT22;34722;52.108;5.044;2023-07-13T23:59:29;15.50;99.90
